sensor_id;sensor_type;location;lat;lon;timestamp;pressure;altitude;pressure_sealevel;temperature;humidity
76022;BME280;64718;52.124;6.226;2022-11-15T00:02:14;100895.13;;;6.65;91.21
76022;BME280;64718;52.124;6.226;2022-11-15T00:04:42;100890.84;;;6.64;91.57
76022;BME280;64718;52.124;6.226;2022-11-15T00:07:09;100890.91;;;6.61;91.31
76022;BME280;64718;52.124;6.226;2022-11-15T00:09:36;100887.06;;;6.76;91.27
76022;BME280;64718;52.124;6.226;2022-11-15T00:12:03;100890.59;;;6.73;91.42
76022;BME280;64718;52.124;6.226;2022-11-15T00:14:29;100883.56;;;6.78;91.39
76022;BME280;64718;52.124;6.226;2022-11-15T00:16:56;100890.41;;;6.81;91.42
76022;BME280;64718;52.124;6.226;2022-11-15T00:19:22;100889.53;;;6.80;91.79
76022;BME280;64718;52.124;6.226;2022-11-15T00:21:50;100886.03;;;6.83;92.08
76022;BME280;64718;52.124;6.226;2022-11-15T00:24:16;100888.53;;;6.86;92.30
76022;BME280;64718;52.124;6.226;2022-11-15T00:26:43;100890.06;;;6.93;92.58
76022;BME280;64718;52.124;6.226;2022-11-15T00:29:09;100882.97;;;7.01;92.67
76022;BME280;64718;52.124;6.226;2022-11-15T00:31:36;100883.94;;;6.97;92.82
76022;BME280;64718;52.124;6.226;2022-11-15T00:34:02;100879.59;;;6.99;93.03
76022;BME280;64718;52.124;6.226;2022-11-15T00:36:32;100880.22;;;7.07;92.90
76022;BME280;64718;52.124;6.226;2022-11-15T00:39:00;100879.41;;;7.05;92.63
76022;BME280;64718;52.124;6.226;2022-11-15T00:41:27;100872.56;;;7.04;93.06
76022;BME280;64718;52.124;6.226;2022-11-15T00:43:53;100865.59;;;7.06;93.30
76022;BME280;64718;52.124;6.226;2022-11-15T00:46:20;100863.00;;;7.06;93.06
76022;BME280;64718;52.124;6.226;2022-11-15T00:48:46;100869.03;;;7.07;93.33
76022;BME280;64718;52.124;6.226;2022-11-15T00:51:13;100862.78;;;7.14;93.05
76022;BME280;64718;52.124;6.226;2022-11-15T00:53:39;100864.63;;;7.10;93.27
76022;BME280;64718;52.124;6.226;2022-11-15T00:56:07;100866.28;;;7.13;93.34
76022;BME280;64718;52.124;6.226;2022-11-15T00:58:34;100860.22;;;7.14;93.70
76022;BME280;64718;52.124;6.226;2022-11-15T01:01:08;100859.13;;;7.21;93.25
76022;BME280;64718;52.124;6.226;2022-11-15T01:03:36;100853.84;;;7.25;93.35
76022;BME280;64718;52.124;6.226;2022-11-15T01:06:03;100852.19;;;7.23;93.49
76022;BME280;64718;52.124;6.226;2022-11-15T01:08:30;100852.84;;;7.29;93.20
76022;BME280;64718;52.124;6.226;2022-11-15T01:11:00;100845.09;;;7.29;93.05
76022;BME280;64718;52.124;6.226;2022-11-15T01:13:31;100849.25;;;7.35;92.99
76022;BME280;64718;52.124;6.226;2022-11-15T01:15:58;100840.44;;;7.41;92.96
76022;BME280;64718;52.124;6.226;2022-11-15T01:18:25;100840.59;;;7.36;93.04
76022;BME280;64718;52.124;6.226;2022-11-15T01:20:51;100841.28;;;7.41;93.26
76022;BME280;64718;52.124;6.226;2022-11-15T01:23:17;100842.22;;;7.39;93.45
76022;BME280;64718;52.124;6.226;2022-11-15T01:25:44;100831.09;;;7.37;93.55
76022;BME280;64718;52.124;6.226;2022-11-15T01:28:11;100835.41;;;7.36;93.89
76022;BME280;64718;52.124;6.226;2022-11-15T01:30:38;100843.97;;;7.38;93.63
76022;BME280;64718;52.124;6.226;2022-11-15T01:33:05;100840.59;;;7.36;94.03
76022;BME280;64718;52.124;6.226;2022-11-15T01:35:31;100838.00;;;7.36;94.02
76022;BME280;64718;52.124;6.226;2022-11-15T01:37:58;100834.59;;;7.34;94.15
76022;BME280;64718;52.124;6.226;2022-11-15T01:40:24;100828.44;;;7.38;94.39
76022;BME280;64718;52.124;6.226;2022-11-15T01:42:51;100836.16;;;7.40;94.26
76022;BME280;64718;52.124;6.226;2022-11-15T01:45:17;100823.19;;;7.41;94.17
76022;BME280;64718;52.124;6.226;2022-11-15T01:47:49;100819.56;;;7.47;94.23
76022;BME280;64718;52.124;6.226;2022-11-15T01:50:20;100816.00;;;7.51;94.28
76022;BME280;64718;52.124;6.226;2022-11-15T01:52:48;100814.38;;;7.47;94.70
76022;BME280;64718;52.124;6.226;2022-11-15T01:55:18;100805.56;;;7.54;94.29
76022;BME280;64718;52.124;6.226;2022-11-15T01:57:49;100806.31;;;7.57;94.57
76022;BME280;64718;52.124;6.226;2022-11-15T02:00:16;100800.31;;;7.57;94.65
76022;BME280;64718;52.124;6.226;2022-11-15T02:02:43;100800.22;;;7.60;94.53
76022;BME280;64718;52.124;6.226;2022-11-15T02:05:11;100795.88;;;7.60;94.54
76022;BME280;64718;52.124;6.226;2022-11-15T02:07:38;100805.34;;;7.61;94.71
76022;BME280;64718;52.124;6.226;2022-11-15T02:10:08;100799.16;;;7.66;94.57
76022;BME280;64718;52.124;6.226;2022-11-15T02:12:36;100804.16;;;7.72;94.82
76022;BME280;64718;52.124;6.226;2022-11-15T02:15:04;100800.66;;;7.73;94.95
76022;BME280;64718;52.124;6.226;2022-11-15T02:17:56;100801.38;;;7.78;94.63
76022;BME280;64718;52.124;6.226;2022-11-15T02:20:52;100793.59;;;7.78;94.45
76022;BME280;64718;52.124;6.226;2022-11-15T02:23:51;100795.19;;;7.82;94.45
76022;BME280;64718;52.124;6.226;2022-11-15T02:26:50;100788.13;;;7.87;94.27
76022;BME280;64718;52.124;6.226;2022-11-15T02:29:32;100792.41;;;7.88;94.31
76022;BME280;64718;52.124;6.226;2022-11-15T02:32:09;100792.47;;;7.86;94.24
76022;BME280;64718;52.124;6.226;2022-11-15T02:34:49;100794.25;;;7.84;94.49
76022;BME280;64718;52.124;6.226;2022-11-15T02:37:24;100794.09;;;7.89;94.49
76022;BME280;64718;52.124;6.226;2022-11-15T02:40:01;100792.25;;;7.92;94.69
76022;BME280;64718;52.124;6.226;2022-11-15T02:42:35;100788.72;;;7.95;94.59
76022;BME280;64718;52.124;6.226;2022-11-15T02:45:24;100785.97;;;8.00;94.38
76022;BME280;64718;52.124;6.226;2022-11-15T02:47:56;100784.97;;;8.04;94.42
76022;BME280;64718;52.124;6.226;2022-11-15T02:50:26;100786.69;;;8.05;94.41
76022;BME280;64718;52.124;6.226;2022-11-15T02:52:54;100783.22;;;8.04;94.24
76022;BME280;64718;52.124;6.226;2022-11-15T02:55:32;100776.19;;;8.09;94.18
76022;BME280;64718;52.124;6.226;2022-11-15T02:58:11;100771.75;;;8.13;94.14
76022;BME280;64718;52.124;6.226;2022-11-15T03:00:46;100766.53;;;8.14;94.19
76022;BME280;64718;52.124;6.226;2022-11-15T03:03:37;100761.06;;;8.22;94.11
76022;BME280;64718;52.124;6.226;2022-11-15T03:06:15;100754.84;;;8.28;94.17
76022;BME280;64718;52.124;6.226;2022-11-15T03:08:53;100753.25;;;8.23;94.07
76022;BME280;64718;52.124;6.226;2022-11-15T03:11:22;100750.41;;;8.31;93.65
76022;BME280;64718;52.124;6.226;2022-11-15T03:13:55;100750.41;;;8.31;93.70
76022;BME280;64718;52.124;6.226;2022-11-15T03:16:26;100748.69;;;8.30;93.57
76022;BME280;64718;52.124;6.226;2022-11-15T03:18:58;100739.91;;;8.36;93.75
76022;BME280;64718;52.124;6.226;2022-11-15T03:21:28;100741.78;;;8.31;93.91
76022;BME280;64718;52.124;6.226;2022-11-15T03:23:55;100749.47;;;8.34;93.42
76022;BME280;64718;52.124;6.226;2022-11-15T03:26:25;100732.97;;;8.36;93.93
76022;BME280;64718;52.124;6.226;2022-11-15T03:28:54;100735.44;;;8.39;93.69
76022;BME280;64718;52.124;6.226;2022-11-15T03:31:22;100737.94;;;8.42;93.60
76022;BME280;64718;52.124;6.226;2022-11-15T03:34:19;100731.75;;;8.46;93.04
76022;BME280;64718;52.124;6.226;2022-11-15T03:36:47;100726.66;;;8.43;93.10
76022;BME280;64718;52.124;6.226;2022-11-15T03:39:15;100723.91;;;8.48;93.47
76022;BME280;64718;52.124;6.226;2022-11-15T03:41:46;100719.63;;;8.47;93.48
76022;BME280;64718;52.124;6.226;2022-11-15T03:44:20;100729.81;;;8.51;93.45
76022;BME280;64718;52.124;6.226;2022-11-15T03:46:57;100723.56;;;8.57;93.09
76022;BME280;64718;52.124;6.226;2022-11-15T03:49:28;100728.47;;;8.65;93.05
76022;BME280;64718;52.124;6.226;2022-11-15T03:51:56;100727.56;;;8.67;93.31
76022;BME280;64718;52.124;6.226;2022-11-15T03:54:23;100732.69;;;8.69;92.64
76022;BME280;64718;52.124;6.226;2022-11-15T03:56:50;100726.59;;;8.70;93.01
76022;BME280;64718;52.124;6.226;2022-11-15T03:59:16;100726.53;;;8.71;93.32
76022;BME280;64718;52.124;6.226;2022-11-15T04:01:43;100734.31;;;8.71;93.08
76022;BME280;64718;52.124;6.226;2022-11-15T04:04:09;100730.53;;;8.80;93.02
76022;BME280;64718;52.124;6.226;2022-11-15T04:06:37;100724.50;;;8.79;92.91
76022;BME280;64718;52.124;6.226;2022-11-15T04:09:04;100731.22;;;8.85;93.27
76022;BME280;64718;52.124;6.226;2022-11-15T04:11:30;100733.69;;;8.88;93.20
76022;BME280;64718;52.124;6.226;2022-11-15T04:13:57;100733.56;;;8.91;92.79
76022;BME280;64718;52.124;6.226;2022-11-15T04:16:23;100735.22;;;8.94;92.76
76022;BME280;64718;52.124;6.226;2022-11-15T04:18:50;100728.03;;;9.00;92.85
76022;BME280;64718;52.124;6.226;2022-11-15T04:21:38;100742.59;;;9.04;92.92
76022;BME280;64718;52.124;6.226;2022-11-15T04:24:22;100739.81;;;9.09;93.23
76022;BME280;64718;52.124;6.226;2022-11-15T04:26:48;100732.03;;;9.09;92.88
76022;BME280;64718;52.124;6.226;2022-11-15T04:29:15;100739.69;;;9.12;93.15
76022;BME280;64718;52.124;6.226;2022-11-15T04:31:59;100741.50;;;9.10;92.86
76022;BME280;64718;52.124;6.226;2022-11-15T04:34:25;100741.25;;;9.16;92.79
76022;BME280;64718;52.124;6.226;2022-11-15T04:36:53;100740.44;;;9.15;93.46
76022;BME280;64718;52.124;6.226;2022-11-15T04:39:33;100744.53;;;9.21;93.12
76022;BME280;64718;52.124;6.226;2022-11-15T04:42:00;100740.19;;;9.22;93.22
76022;BME280;64718;52.124;6.226;2022-11-15T04:44:26;100740.06;;;9.25;93.07
76022;BME280;64718;52.124;6.226;2022-11-15T04:46:53;100739.84;;;9.31;93.13
76022;BME280;64718;52.124;6.226;2022-11-15T04:49:19;100740.41;;;9.39;93.21
76022;BME280;64718;52.124;6.226;2022-11-15T04:51:46;100732.63;;;9.39;92.91
76022;BME280;64718;52.124;6.226;2022-11-15T04:54:14;100733.66;;;9.35;93.12
76022;BME280;64718;52.124;6.226;2022-11-15T04:56:41;100725.72;;;9.38;92.84
76022;BME280;64718;52.124;6.226;2022-11-15T04:59:07;100729.13;;;9.40;92.90
76022;BME280;64718;52.124;6.226;2022-11-15T05:01:34;100732.31;;;9.46;92.92
76022;BME280;64718;52.124;6.226;2022-11-15T05:04:00;100730.63;;;9.45;92.88
76022;BME280;64718;52.124;6.226;2022-11-15T05:06:44;100730.50;;;9.48;92.62
76022;BME280;64718;52.124;6.226;2022-11-15T05:09:11;100731.94;;;9.56;92.92
76022;BME280;64718;52.124;6.226;2022-11-15T05:11:40;100734.53;;;9.56;92.62
76022;BME280;64718;52.124;6.226;2022-11-15T05:14:07;100737.84;;;9.59;92.65
76022;BME280;64718;52.124;6.226;2022-11-15T05:16:34;100735.31;;;9.58;92.82
76022;BME280;64718;52.124;6.226;2022-11-15T05:19:00;100736.28;;;9.55;92.76
76022;BME280;64718;52.124;6.226;2022-11-15T05:21:27;100730.44;;;9.50;92.93
76022;BME280;64718;52.124;6.226;2022-11-15T05:23:53;100730.00;;;9.61;92.93
76022;BME280;64718;52.124;6.226;2022-11-15T05:26:20;100735.19;;;9.61;92.87
76022;BME280;64718;52.124;6.226;2022-11-15T05:28:52;100725.66;;;9.61;92.51
76022;BME280;64718;52.124;6.226;2022-11-15T05:31:19;100735.84;;;9.66;92.62
76022;BME280;64718;52.124;6.226;2022-11-15T05:33:45;100723.00;;;9.63;92.31
76022;BME280;64718;52.124;6.226;2022-11-15T05:36:15;100725.66;;;9.61;92.92
76022;BME280;64718;52.124;6.226;2022-11-15T05:38:44;100730.47;;;9.70;92.50
76022;BME280;64718;52.124;6.226;2022-11-15T05:41:11;100729.44;;;9.74;92.71
76022;BME280;64718;52.124;6.226;2022-11-15T05:43:39;100727.75;;;9.73;92.85
76022;BME280;64718;52.124;6.226;2022-11-15T05:46:08;100727.69;;;9.75;92.53
76022;BME280;64718;52.124;6.226;2022-11-15T05:48:36;100720.94;;;9.71;92.58
76022;BME280;64718;52.124;6.226;2022-11-15T05:51:04;100717.16;;;9.78;92.43
76022;BME280;64718;52.124;6.226;2022-11-15T05:53:33;100725.75;;;9.80;92.92
76022;BME280;64718;52.124;6.226;2022-11-15T05:56:00;100726.59;;;9.80;92.82
76022;BME280;64718;52.124;6.226;2022-11-15T05:58:27;100719.69;;;9.79;93.16
76022;BME280;64718;52.124;6.226;2022-11-15T06:00:54;100728.00;;;9.89;92.66
76022;BME280;64718;52.124;6.226;2022-11-15T06:03:22;100726.28;;;9.88;92.87
76022;BME280;64718;52.124;6.226;2022-11-15T06:05:48;100734.03;;;9.90;92.63
76022;BME280;64718;52.124;6.226;2022-11-15T06:08:15;100734.22;;;9.85;92.71
76022;BME280;64718;52.124;6.226;2022-11-15T06:10:42;100733.13;;;9.91;93.59
76022;BME280;64718;52.124;6.226;2022-11-15T06:13:08;100738.38;;;9.89;93.58
76022;BME280;64718;52.124;6.226;2022-11-15T06:15:35;100733.19;;;9.89;93.43
76022;BME280;64718;52.124;6.226;2022-11-15T06:18:02;100746.97;;;9.91;93.71
76022;BME280;64718;52.124;6.226;2022-11-15T06:20:30;100737.41;;;9.92;93.93
76022;BME280;64718;52.124;6.226;2022-11-15T06:22:57;100747.03;;;9.90;94.00
76022;BME280;64718;52.124;6.226;2022-11-15T06:25:24;100738.84;;;9.99;93.76
76022;BME280;64718;52.124;6.226;2022-11-15T06:27:51;100743.31;;;9.95;93.79
76022;BME280;64718;52.124;6.226;2022-11-15T06:30:18;100733.56;;;10.00;93.92
76022;BME280;64718;52.124;6.226;2022-11-15T06:32:45;100730.00;;;10.03;93.89
76022;BME280;64718;52.124;6.226;2022-11-15T06:35:12;100736.03;;;10.03;94.05
76022;BME280;64718;52.124;6.226;2022-11-15T06:37:40;100743.31;;;9.95;94.39
76022;BME280;64718;52.124;6.226;2022-11-15T06:40:08;100743.91;;;10.02;94.06
76022;BME280;64718;52.124;6.226;2022-11-15T06:42:35;100746.56;;;10.00;94.34
76022;BME280;64718;52.124;6.226;2022-11-15T06:45:02;100743.84;;;10.03;94.34
76022;BME280;64718;52.124;6.226;2022-11-15T06:47:29;100749.94;;;10.02;94.76
76022;BME280;64718;52.124;6.226;2022-11-15T06:49:55;100753.31;;;10.04;94.49
76022;BME280;64718;52.124;6.226;2022-11-15T06:52:22;100754.94;;;10.07;94.66
76022;BME280;64718;52.124;6.226;2022-11-15T06:54:49;100754.81;;;10.10;94.65
76022;BME280;64718;52.124;6.226;2022-11-15T06:57:16;100753.38;;;10.03;94.64
76022;BME280;64718;52.124;6.226;2022-11-15T06:59:42;100752.94;;;10.13;94.82
76022;BME280;64718;52.124;6.226;2022-11-15T07:02:12;100759.25;;;10.08;94.82
76022;BME280;64718;52.124;6.226;2022-11-15T07:04:39;100757.34;;;10.11;94.68
76022;BME280;64718;52.124;6.226;2022-11-15T07:07:05;100767.03;;;10.08;94.70
76022;BME280;64718;52.124;6.226;2022-11-15T07:09:32;100768.66;;;10.10;94.62
76022;BME280;64718;52.124;6.226;2022-11-15T07:12:00;100765.22;;;10.10;94.78
76022;BME280;64718;52.124;6.226;2022-11-15T07:14:26;100774.00;;;10.07;95.09
76022;BME280;64718;52.124;6.226;2022-11-15T07:17:03;100767.63;;;10.14;94.99
76022;BME280;64718;52.124;6.226;2022-11-15T07:19:30;100766.72;;;10.15;95.28
76022;BME280;64718;52.124;6.226;2022-11-15T07:21:57;100763.19;;;10.17;94.75
76022;BME280;64718;52.124;6.226;2022-11-15T07:24:24;100762.91;;;10.24;94.51
76022;BME280;64718;52.124;6.226;2022-11-15T07:26:50;100755.28;;;10.20;94.89
76022;BME280;64718;52.124;6.226;2022-11-15T07:29:18;100766.66;;;10.17;94.71
76022;BME280;64718;52.124;6.226;2022-11-15T07:31:44;100764.81;;;10.19;94.47
76022;BME280;64718;52.124;6.226;2022-11-15T07:34:11;100761.22;;;10.23;94.90
76022;BME280;64718;52.124;6.226;2022-11-15T07:36:37;100774.94;;;10.27;94.77
76022;BME280;64718;52.124;6.226;2022-11-15T07:39:04;100777.34;;;10.31;94.82
76022;BME280;64718;52.124;6.226;2022-11-15T07:41:30;100773.19;;;10.27;94.83
76022;BME280;64718;52.124;6.226;2022-11-15T07:43:57;100780.06;;;10.28;94.91
76022;BME280;64718;52.124;6.226;2022-11-15T07:46:25;100775.56;;;10.32;94.47
76022;BME280;64718;52.124;6.226;2022-11-15T07:48:51;100781.44;;;10.37;94.32
76022;BME280;64718;52.124;6.226;2022-11-15T07:51:18;100782.41;;;10.34;94.47
76022;BME280;64718;52.124;6.226;2022-11-15T07:53:44;100781.56;;;10.34;94.42
76022;BME280;64718;52.124;6.226;2022-11-15T07:56:11;100777.28;;;10.33;94.61
76022;BME280;64718;52.124;6.226;2022-11-15T07:58:38;100783.38;;;10.32;94.28
76022;BME280;64718;52.124;6.226;2022-11-15T08:01:05;100781.88;;;10.26;94.92
76022;BME280;64718;52.124;6.226;2022-11-15T08:03:33;100782.34;;;10.36;94.94
76022;BME280;64718;52.124;6.226;2022-11-15T08:06:00;100783.56;;;10.27;94.53
76022;BME280;64718;52.124;6.226;2022-11-15T08:08:27;100782.78;;;10.25;94.57
76022;BME280;64718;52.124;6.226;2022-11-15T08:10:53;100788.06;;;10.24;95.16
76022;BME280;64718;52.124;6.226;2022-11-15T08:13:20;100784.56;;;10.25;95.41
76022;BME280;64718;52.124;6.226;2022-11-15T08:15:46;100785.06;;;10.33;94.78
76022;BME280;64718;52.124;6.226;2022-11-15T08:18:15;100781.34;;;10.38;94.54
76022;BME280;64718;52.124;6.226;2022-11-15T08:20:43;100785.00;;;10.34;94.87
76022;BME280;64718;52.124;6.226;2022-11-15T08:23:10;100777.00;;;10.39;94.66
76022;BME280;64718;52.124;6.226;2022-11-15T08:25:37;100773.19;;;10.48;94.56
76022;BME280;64718;52.124;6.226;2022-11-15T08:28:06;100781.84;;;10.48;94.42
76022;BME280;64718;52.124;6.226;2022-11-15T08:30:35;100778.84;;;10.57;94.90
76022;BME280;64718;52.124;6.226;2022-11-15T08:33:03;100769.16;;;10.61;94.60
76022;BME280;64718;52.124;6.226;2022-11-15T08:35:29;100774.22;;;10.64;94.18
76022;BME280;64718;52.124;6.226;2022-11-15T08:37:57;100780.75;;;10.72;94.10
76022;BME280;64718;52.124;6.226;2022-11-15T08:40:24;100775.06;;;10.64;93.87
76022;BME280;64718;52.124;6.226;2022-11-15T08:42:52;100774.16;;;10.65;94.01
76022;BME280;64718;52.124;6.226;2022-11-15T08:45:18;100769.78;;;10.66;94.11
76022;BME280;64718;52.124;6.226;2022-11-15T08:47:45;100768.16;;;10.63;93.98
76022;BME280;64718;52.124;6.226;2022-11-15T08:50:11;100767.03;;;10.69;94.01
76022;BME280;64718;52.124;6.226;2022-11-15T08:52:38;100767.19;;;10.66;93.73
76022;BME280;64718;52.124;6.226;2022-11-15T08:55:07;100765.16;;;10.72;94.04
76022;BME280;64718;52.124;6.226;2022-11-15T08:57:34;100764.09;;;10.76;93.58
76022;BME280;64718;52.124;6.226;2022-11-15T09:00:00;100758.84;;;10.78;93.41
76022;BME280;64718;52.124;6.226;2022-11-15T09:02:27;100759.47;;;10.83;93.08
76022;BME280;64718;52.124;6.226;2022-11-15T09:04:53;100762.22;;;10.80;92.69
76022;BME280;64718;52.124;6.226;2022-11-15T09:07:20;100762.22;;;10.80;92.58
76022;BME280;64718;52.124;6.226;2022-11-15T09:09:46;100764.59;;;10.85;92.32
76022;BME280;64718;52.124;6.226;2022-11-15T09:12:14;100762.78;;;10.87;91.64
76022;BME280;64718;52.124;6.226;2022-11-15T09:14:40;100756.03;;;10.83;91.52
76022;BME280;64718;52.124;6.226;2022-11-15T09:17:07;100760.38;;;10.82;92.12
76022;BME280;64718;52.124;6.226;2022-11-15T09:19:34;100756.31;;;10.76;91.73
76022;BME280;64718;52.124;6.226;2022-11-15T09:22:02;100757.56;;;10.68;91.82
76022;BME280;64718;52.124;6.226;2022-11-15T09:24:31;100761.00;;;10.68;91.34
76022;BME280;64718;52.124;6.226;2022-11-15T09:26:57;100753.91;;;10.72;91.82
76022;BME280;64718;52.124;6.226;2022-11-15T09:29:25;100755.53;;;10.74;91.31
76022;BME280;64718;52.124;6.226;2022-11-15T09:31:52;100751.09;;;10.76;91.52
76022;BME280;64718;52.124;6.226;2022-11-15T09:34:19;100753.56;;;10.80;91.51
76022;BME280;64718;52.124;6.226;2022-11-15T09:36:46;100758.75;;;10.80;90.66
76022;BME280;64718;52.124;6.226;2022-11-15T09:39:12;100762.22;;;10.80;90.64
76022;BME280;64718;52.124;6.226;2022-11-15T09:41:54;100750.69;;;10.86;90.79
76022;BME280;64718;52.124;6.226;2022-11-15T09:44:46;100755.47;;;10.95;89.79
76022;BME280;64718;52.124;6.226;2022-11-15T09:47:32;100748.50;;;10.95;89.87
76022;BME280;64718;52.124;6.226;2022-11-15T09:50:10;100741.75;;;10.91;90.20
76022;BME280;64718;52.124;6.226;2022-11-15T09:52:39;100740.63;;;10.97;89.71
76022;BME280;64718;52.124;6.226;2022-11-15T09:55:08;100741.75;;;10.91;89.41
76022;BME280;64718;52.124;6.226;2022-11-15T09:57:41;100737.91;;;11.00;88.86
76022;BME280;64718;52.124;6.226;2022-11-15T10:00:16;100737.81;;;11.20;89.16
76022;BME280;64718;52.124;6.226;2022-11-15T10:02:58;100739.09;;;11.30;88.77
76022;BME280;64718;52.124;6.226;2022-11-15T10:05:28;100731.19;;;11.32;87.57
76022;BME280;64718;52.124;6.226;2022-11-15T10:07:59;100732.38;;;11.44;87.95
76022;BME280;64718;52.124;6.226;2022-11-15T10:10:32;100728.06;;;11.43;87.77
76022;BME280;64718;52.124;6.226;2022-11-15T10:13:01;100737.50;;;11.45;87.49
76022;BME280;64718;52.124;6.226;2022-11-15T10:15:30;100720.56;;;11.36;87.76
76022;BME280;64718;52.124;6.226;2022-11-15T10:18:07;100721.41;;;11.37;87.18
76022;BME280;64718;52.124;6.226;2022-11-15T10:20:46;100719.66;;;11.37;86.78
76022;BME280;64718;52.124;6.226;2022-11-15T10:23:15;100710.06;;;11.38;87.92
76022;BME280;64718;52.124;6.226;2022-11-15T10:25:42;100711.22;;;11.50;87.43
76022;BME280;64718;52.124;6.226;2022-11-15T10:28:13;100702.16;;;11.58;87.07
76022;BME280;64718;52.124;6.226;2022-11-15T10:30:43;100697.03;;;11.57;87.32
76022;BME280;64718;52.124;6.226;2022-11-15T10:33:32;100694.06;;;11.46;86.54
76022;BME280;64718;52.124;6.226;2022-11-15T10:36:21;100696.13;;;11.39;87.32
76022;BME280;64718;52.124;6.226;2022-11-15T10:38:57;100696.69;;;11.46;87.72
76022;BME280;64718;52.124;6.226;2022-11-15T10:41:32;100694.53;;;11.36;87.71
76022;BME280;64718;52.124;6.226;2022-11-15T10:44:07;100688.31;;;11.39;88.04
76022;BME280;64718;52.124;6.226;2022-11-15T10:46:38;100693.31;;;11.44;87.77
76022;BME280;64718;52.124;6.226;2022-11-15T10:49:13;100694.63;;;11.52;86.62
76022;BME280;64718;52.124;6.226;2022-11-15T10:51:42;100690.81;;;11.59;86.42
76022;BME280;64718;52.124;6.226;2022-11-15T10:54:12;100686.91;;;11.68;86.03
76022;BME280;64718;52.124;6.226;2022-11-15T10:56:42;100693.06;;;11.67;84.75
76022;BME280;64718;52.124;6.226;2022-11-15T10:59:16;100687.84;;;11.67;84.53
76022;BME280;64718;52.124;6.226;2022-11-15T11:01:48;100685.16;;;11.68;84.11
76022;BME280;64718;52.124;6.226;2022-11-15T11:04:15;100684.78;;;11.76;83.75
76022;BME280;64718;52.124;6.226;2022-11-15T11:06:49;100681.19;;;11.79;83.70
76022;BME280;64718;52.124;6.226;2022-11-15T11:09:23;100679.81;;;11.89;82.67
76022;BME280;64718;52.124;6.226;2022-11-15T11:11:54;100666.16;;;12.01;82.60
76022;BME280;64718;52.124;6.226;2022-11-15T11:14:22;100659.69;;;12.08;81.78
76022;BME280;64718;52.124;6.226;2022-11-15T11:16:55;100645.31;;;12.01;81.50
76022;BME280;64718;52.124;6.226;2022-11-15T11:20:00;100633.47;;;11.78;80.71
76022;BME280;64718;52.124;6.226;2022-11-15T11:22:34;100643.22;;;11.73;81.21
76022;BME280;64718;52.124;6.226;2022-11-15T11:25:14;100635.75;;;11.84;81.99
76022;BME280;64718;52.124;6.226;2022-11-15T11:27:51;100637.34;;;11.87;81.32
76022;BME280;64718;52.124;6.226;2022-11-15T11:30:24;100636.34;;;11.89;82.19
76022;BME280;64718;52.124;6.226;2022-11-15T11:33:04;100639.97;;;11.87;80.29
76022;BME280;64718;52.124;6.226;2022-11-15T11:35:37;100627.44;;;11.76;80.24
76022;BME280;64718;52.124;6.226;2022-11-15T11:38:16;100633.13;;;11.67;81.44
76022;BME280;64718;52.124;6.226;2022-11-15T11:40:54;100644.53;;;11.64;80.62
76022;BME280;64718;52.124;6.226;2022-11-15T11:43:30;100632.50;;;11.62;79.28
76022;BME280;64718;52.124;6.226;2022-11-15T11:46:13;100629.66;;;11.49;80.48
76022;BME280;64718;52.124;6.226;2022-11-15T11:48:47;100625.06;;;11.54;79.94
76022;BME280;64718;52.124;6.226;2022-11-15T11:51:20;100625.97;;;11.53;80.27
76022;BME280;64718;52.124;6.226;2022-11-15T11:53:52;100622.44;;;11.54;77.94
76022;BME280;64718;52.124;6.226;2022-11-15T11:56:25;100624.53;;;11.48;79.00
76022;BME280;64718;52.124;6.226;2022-11-15T11:58:53;100625.47;;;11.64;78.87
76022;BME280;64718;52.124;6.226;2022-11-15T12:01:23;100620.56;;;11.75;76.71
76022;BME280;64718;52.124;6.226;2022-11-15T12:03:55;100624.00;;;11.76;77.43
76022;BME280;64718;52.124;6.226;2022-11-15T12:06:30;100627.69;;;11.89;74.55
76022;BME280;64718;52.124;6.226;2022-11-15T12:09:01;100617.03;;;11.93;73.89
76022;BME280;64718;52.124;6.226;2022-11-15T12:11:32;100626.00;;;11.88;71.81
76022;BME280;64718;52.124;6.226;2022-11-15T12:14:08;100623.22;;;11.73;72.65
76022;BME280;64718;52.124;6.226;2022-11-15T12:16:38;100622.56;;;11.70;72.35
76022;BME280;64718;52.124;6.226;2022-11-15T12:19:08;100614.66;;;11.71;73.79
76022;BME280;64718;52.124;6.226;2022-11-15T12:21:40;100608.75;;;11.68;73.79
76022;BME280;64718;52.124;6.226;2022-11-15T12:24:13;100606.84;;;11.71;73.48
76022;BME280;64718;52.124;6.226;2022-11-15T12:26:46;100601.63;;;11.71;69.66
76022;BME280;64718;52.124;6.226;2022-11-15T12:29:18;100592.88;;;11.72;72.24
76022;BME280;64718;52.124;6.226;2022-11-15T12:31:49;100593.66;;;11.75;72.22
76022;BME280;64718;52.124;6.226;2022-11-15T12:34:36;100573.53;;;11.78;69.26
76022;BME280;64718;52.124;6.226;2022-11-15T12:40:25;100567.25;;;11.98;70.46
76022;BME280;64718;52.124;6.226;2022-11-15T12:45:54;100556.75;;;11.99;68.80
76022;BME280;64718;52.124;6.226;2022-11-15T12:48:52;100548.41;;;11.93;69.21
76022;BME280;64718;52.124;6.226;2022-11-15T12:51:23;100543.97;;;11.95;69.96
76022;BME280;64718;52.124;6.226;2022-11-15T12:57:39;100528.31;;;11.95;68.98
76022;BME280;64718;52.124;6.226;2022-11-15T13:03:27;100534.63;;;11.91;70.25
76022;BME280;64718;52.124;6.226;2022-11-15T13:06:09;100514.47;;;11.94;69.03
76022;BME280;64718;52.124;6.226;2022-11-15T13:08:49;100509.31;;;11.93;69.85
76022;BME280;64718;52.124;6.226;2022-11-15T13:14:44;100505.63;;;11.97;68.68
76022;BME280;64718;52.124;6.226;2022-11-15T13:17:21;100499.66;;;11.95;67.60
76022;BME280;64718;52.124;6.226;2022-11-15T13:19:53;100493.69;;;11.93;68.53
76022;BME280;64718;52.124;6.226;2022-11-15T13:22:23;100490.25;;;11.92;69.35
76022;BME280;64718;52.124;6.226;2022-11-15T13:25:27;100488.63;;;11.90;69.37
76022;BME280;64718;52.124;6.226;2022-11-15T13:27:57;100480.41;;;11.82;70.86
76022;BME280;64718;52.124;6.226;2022-11-15T13:30:25;100477.78;;;11.82;70.67